Time,TemperatureF,DewpointF,PressureIn,WindDirection,WindDirectionDegrees,WindSpeedMPH,WindSpeedGustMPH,Humidity,HourlyPrecipIn,Conditions,Clouds,dailyrainin,SoftwareType,DateUTC
2013-01-19 00:00:00,30.0,25.8,0.00,North,0,0.0,0.0,84,0.00,,,0.00,WUHU21623XXSP,2013-01-19 05:00:00,
2013-01-19 00:01:00,30.0,25.8,0.00,North,0,0.0,0.0,84,0.00,,,0.00,WUHU21623XXSP,2013-01-19 05:01:00,
2013-01-19 00:02:00,30.0,25.8,0.00,North,0,0.0,0.0,84,0.00,,,0.00,WUHU21623XXSP,2013-01-19 05:02:00,
2013-01-19 00:07:00,30.0,25.8,0.00,North,0,0.0,0.0,84,0.00,,,0.00,WUHU21623XXSP,2013-01-19 05:07:00,
2013-01-19 00:12:00,30.0,25.8,0.00,North,0,0.0,0.0,84,0.00,,,0.00,WUHU21623XXSP,2013-01-19 05:12:00,
2013-01-19 00:17:00,30.0,25.8,0.00,North,0,0.0,0.0,84,0.00,,,0.00,WUHU21623XXSP,2013-01-19 05:17:00,
2013-01-19 00:22:00,30.0,25.8,0.00,North,0,0.0,0.0,84,0.00,,,0.00,WUHU21623XXSP,2013-01-19 05:22:00,
2013-01-19 00:27:00,30.0,25.8,0.00,North,0,0.0,0.0,84,0.00,,,0.00,WUHU21623XXSP,2013-01-19 05:27:00,
2013-01-19 00:32:00,30.0,26.1,0.00,North,0,0.0,0.0,85,0.00,,,0.00,WUHU21623XXSP,2013-01-19 05:32:00,
2013-01-19 00:37:00,30.0,26.1,0.00,North,0,0.0,0.0,85,0.00,,,0.00,WUHU21623XXSP,2013-01-19 05:37:00,
2013-01-19 00:42:00,29.8,25.9,0.00,North,0,0.0,0.0,85,0.00,,,0.00,WUHU21623XXSP,2013-01-19 05:42:00,
2013-01-19 00:47:00,29.8,25.9,0.00,North,0,0.0,0.0,85,0.00,,,0.00,WUHU21623XXSP,2013-01-19 05:47:00,
2013-01-19 00:52:00,29.8,25.9,0.00,North,0,0.0,0.0,85,0.00,,,0.00,WUHU21623XXSP,2013-01-19 05:52:00,
2013-01-19 00:57:00,29.8,25.9,0.00,North,0,0.0,0.0,85,0.00,,,0.00,WUHU21623XXSP,2013-01-19 05:57:00,
2013-01-19 01:02:00,29.8,25.9,0.00,North,0,0.0,0.0,85,0.00,,,0.00,WUHU21623XXSP,2013-01-19 06:02:00,
2013-01-19 01:07:00,30.0,26.1,0.00,North,0,0.0,0.0,85,0.00,,,0.00,WUHU21623XXSP,2013-01-19 06:07:00,
2013-01-19 01:12:00,30.0,26.1,0.00,North,0,0.0,0.0,85,0.00,,,0.00,WUHU21623XXSP,2013-01-19 06:12:00,
2013-01-19 01:17:00,29.8,25.9,0.00,North,0,0.0,0.0,85,0.00,,,0.00,WUHU21623XXSP,2013-01-19 06:17:00,
2013-01-19 01:22:00,29.8,25.9,0.00,North,0,0.0,0.0,85,0.00,,,0.00,WUHU21623XXSP,2013-01-19 06:22:00,
2013-01-19 01:27:00,29.8,25.9,0.00,North,0,0.0,0.0,85,0.00,,,0.00,WUHU21623XXSP,2013-01-19 06:27:00,
2013-01-19 01:32:00,29.8,25.9,0.00,North,0,0.0,0.0,85,0.00,,,0.00,WUHU21623XXSP,2013-01-19 06:32:00,
2013-01-19 01:37:00,29.8,25.9,0.00,North,0,0.0,0.0,85,0.00,,,0.00,WUHU21623XXSP,2013-01-19 06:37:00,
2013-01-19 01:42:00,29.8,25.9,0.00,North,0,0.0,0.0,85,0.00,,,0.00,WUHU21623XXSP,2013-01-19 06:42:00,
2013-01-19 01:47:00,29.8,25.9,0.00,North,0,0.0,0.0,85,0.00,,,0.00,WUHU21623XXSP,2013-01-19 06:47:00,
2013-01-19 01:52:00,29.8,25.9,0.00,North,0,0.0,0.0,85,0.00,,,0.00,WUHU21623XXSP,2013-01-19 06:52:00,
2013-01-19 01:57:00,29.8,25.9,0.00,North,0,0.0,0.0,85,0.00,,,0.00,WUHU21623XXSP,2013-01-19 06:57:00,
2013-01-19 02:02:00,29.8,25.9,0.00,North,0,0.0,0.0,85,0.00,,,0.00,WUHU21623XXSP,2013-01-19 07:02:00,
2013-01-19 02:07:00,29.7,25.7,0.00,North,0,0.0,0.0,85,0.00,,,0.00,WUHU21623XXSP,2013-01-19 07:07:00,
2013-01-19 02:12:00,29.5,25.5,0.00,North,0,0.0,0.0,85,0.00,,,0.00,WUHU21623XXSP,2013-01-19 07:12:00,
2013-01-19 02:17:00,29.5,25.5,0.00,North,0,0.0,0.0,85,0.00,,,0.00,WUHU21623XXSP,2013-01-19 07:17:00,
2013-01-19 02:22:00,29.1,25.2,0.00,North,0,0.0,0.0,85,0.00,,,0.00,WUHU21623XXSP,2013-01-19 07:22:00,
2013-01-19 02:27:00,29.1,25.2,0.00,North,0,0.0,0.0,85,0.00,,,0.00,WUHU21623XXSP,2013-01-19 07:27:00,
2013-01-19 02:32:00,29.1,25.2,0.00,North,0,0.0,0.0,85,0.00,,,0.00,WUHU21623XXSP,2013-01-19 07:32:00,
2013-01-19 02:37:00,29.1,25.2,0.00,North,0,0.0,0.0,85,0.00,,,0.00,WUHU21623XXSP,2013-01-19 07:37:00,
2013-01-19 02:42:00,29.1,25.2,0.00,North,0,0.0,0.0,85,0.00,,,0.00,WUHU21623XXSP,2013-01-19 07:42:00,
2013-01-19 02:47:00,28.9,25.0,0.00,North,0,0.0,0.0,85,0.00,,,0.00,WUHU21623XXSP,2013-01-19 07:47:00,
2013-01-19 02:52:00,29.1,25.0,0.00,North,0,0.0,0.0,85,0.00,,,0.00,WUHU21623XXSP,2013-01-19 07:52:00,
2013-01-19 02:57:00,28.9,25.0,0.00,North,0,0.0,0.0,85,0.00,,,0.00,WUHU21623XXSP,2013-01-19 07:57:00,
2013-01-19 03:02:00,28.9,25.0,0.00,North,0,0.0,0.0,85,0.00,,,0.00,WUHU21623XXSP,2013-01-19 08:02:00,
2013-01-19 03:07:00,28.9,25.0,0.00,North,0,0.0,0.0,85,0.00,,,0.00,WUHU21623XXSP,2013-01-19 08:07:00,
2013-01-19 03:12:00,28.8,24.8,0.00,North,0,0.0,0.0,85,0.00,,,0.00,WUHU21623XXSP,2013-01-19 08:12:00,
2013-01-19 03:17:00,28.8,24.8,0.00,North,0,0.0,0.0,85,0.00,,,0.00,WUHU21623XXSP,2013-01-19 08:17:00,
2013-01-19 03:22:00,28.8,24.8,0.00,North,0,0.0,0.0,85,0.00,,,0.00,WUHU21623XXSP,2013-01-19 08:22:00,
2013-01-19 03:27:00,28.6,24.6,0.00,North,0,0.0,0.0,85,0.00,,,0.00,WUHU21623XXSP,2013-01-19 08:27:00,
2013-01-19 03:32:00,28.6,24.6,0.00,North,0,0.0,0.0,85,0.00,,,0.00,WUHU21623XXSP,2013-01-19 08:32:00,
2013-01-19 03:38:00,28.6,24.6,0.00,North,0,0.0,0.0,85,0.00,,,0.00,WUHU21623XXSP,2013-01-19 08:38:00,
2013-01-19 03:43:00,28.6,24.6,0.00,North,0,0.0,0.0,85,0.00,,,0.00,WUHU21623XXSP,2013-01-19 08:43:00,
2013-01-19 03:48:00,28.6,24.6,0.00,North,0,0.0,0.0,85,0.00,,,0.00,WUHU21623XXSP,2013-01-19 08:48:00,
2013-01-19 03:53:00,28.6,24.6,0.00,North,0,0.0,0.0,85,0.00,,,0.00,WUHU21623XXSP,2013-01-19 08:53:00,
2013-01-19 03:58:00,28.6,24.6,0.00,North,0,0.0,0.0,85,0.00,,,0.00,WUHU21623XXSP,2013-01-19 08:58:00,
2013-01-19 04:03:00,28.4,24.4,0.00,North,0,0.0,0.0,85,0.00,,,0.00,WUHU21623XXSP,2013-01-19 09:03:00,
2013-01-19 04:08:00,28.2,24.3,0.00,North,0,0.0,0.0,85,0.00,,,0.00,WUHU21623XXSP,2013-01-19 09:08:00,
2013-01-19 04:13:00,28.2,24.3,0.00,North,0,0.0,0.0,85,0.00,,,0.00,WUHU21623XXSP,2013-01-19 09:13:00,
2013-01-19 04:18:00,28.2,24.3,0.00,North,0,0.0,0.0,85,0.00,,,0.00,WUHU21623XXSP,2013-01-19 09:18:00,
2013-01-19 04:23:00,28.2,24.3,0.00,North,0,0.0,0.0,85,0.00,,,0.00,WUHU21623XXSP,2013-01-19 09:23:00,
2013-01-19 04:28:00,28.0,24.1,0.00,North,0,0.0,0.0,85,0.00,,,0.00,WUHU21623XXSP,2013-01-19 09:28:00,
2013-01-19 04:33:00,28.0,24.1,0.00,North,0,0.0,0.0,85,0.00,,,0.00,WUHU21623XXSP,2013-01-19 09:33:00,
2013-01-19 04:38:00,28.2,24.3,0.00,North,0,0.0,0.0,85,0.00,,,0.00,WUHU21623XXSP,2013-01-19 09:38:00,
2013-01-19 04:43:00,28.0,24.1,0.00,North,0,0.0,0.0,85,0.00,,,0.00,WUHU21623XXSP,2013-01-19 09:43:00,
2013-01-19 04:48:00,28.0,24.1,0.00,North,0,0.0,0.0,85,0.00,,,0.00,WUHU21623XXSP,2013-01-19 09:48:00,
2013-01-19 04:53:00,28.0,24.1,0.00,North,0,0.0,0.0,85,0.00,,,0.00,WUHU21623XXSP,2013-01-19 09:53:00,
2013-01-19 04:58:00,28.0,24.1,0.00,North,0,0.0,0.0,85,0.00,,,0.00,WUHU21623XXSP,2013-01-19 09:58:00,
2013-01-19 05:03:00,27.9,23.9,0.00,North,0,0.0,0.0,85,0.00,,,0.00,WUHU21623XXSP,2013-01-19 10:03:00,
2013-01-19 05:08:00,27.7,23.4,0.00,North,0,0.0,0.0,84,0.00,,,0.00,WUHU21623XXSP,2013-01-19 10:08:00,
2013-01-19 05:13:00,27.7,23.4,0.00,North,0,0.0,0.0,84,0.00,,,0.00,WUHU21623XXSP,2013-01-19 10:13:00,
2013-01-19 05:18:00,27.7,23.4,0.00,North,0,0.0,0.0,84,0.00,,,0.00,WUHU21623XXSP,2013-01-19 10:18:00,
2013-01-19 05:23:00,27.7,23.4,0.00,North,0,0.0,0.0,84,0.00,,,0.00,WUHU21623XXSP,2013-01-19 10:23:00,
2013-01-19 05:28:00,27.7,23.4,0.00,North,0,0.0,0.0,84,0.00,,,0.00,WUHU21623XXSP,2013-01-19 10:28:00,
2013-01-19 05:33:00,27.7,23.7,0.00,North,0,0.0,0.0,85,0.00,,,0.00,WUHU21623XXSP,2013-01-19 10:33:00,
2013-01-19 05:38:00,27.5,23.5,0.00,North,0,0.0,0.0,85,0.00,,,0.00,WUHU21623XXSP,2013-01-19 10:38:00,
2013-01-19 05:43:00,27.5,23.5,0.00,North,0,0.0,0.0,85,0.00,,,0.00,WUHU21623XXSP,2013-01-19 10:43:00,
2013-01-19 05:48:00,27.5,23.5,0.00,North,0,0.0,0.0,85,0.00,,,0.00,WUHU21623XXSP,2013-01-19 10:48:00,
2013-01-19 05:53:00,27.5,23.5,0.00,North,0,0.0,0.0,85,0.00,,,0.00,WUHU21623XXSP,2013-01-19 10:53:00,
2013-01-19 05:58:00,27.3,23.4,0.00,North,0,0.0,0.0,85,0.00,,,0.00,WUHU21623XXSP,2013-01-19 10:58:00,
2013-01-19 06:03:00,27.3,23.4,0.00,North,0,0.0,0.0,85,0.00,,,0.00,WUHU21623XXSP,2013-01-19 11:03:00,
2013-01-19 06:08:00,27.3,23.4,0.00,North,0,0.0,0.0,85,0.00,,,0.00,WUHU21623XXSP,2013-01-19 11:08:00,
2013-01-19 06:12:00,27.3,23.4,0.00,North,0,0.0,0.0,85,0.00,,,0.00,WUHU21623XXSP,2013-01-19 11:12:00,
2013-01-19 06:13:00,27.3,23.4,0.00,North,0,0.0,0.0,85,0.00,,,0.00,WUHU21623XXSP,2013-01-19 11:13:00,
2013-01-19 06:19:00,27.1,23.2,0.00,North,0,0.0,0.0,85,0.00,,,0.00,WUHU21623XXSP,2013-01-19 11:19:00,
2013-01-19 06:25:00,27.1,23.2,0.00,North,0,0.0,0.0,85,0.00,,,0.00,WUHU21623XXSP,2013-01-19 11:25:00,
2013-01-19 06:31:00,27.1,23.2,0.00,North,0,0.0,0.0,85,0.00,,,0.00,WUHU21623XXSP,2013-01-19 11:31:00,
2013-01-19 06:36:00,27.3,23.4,0.00,North,0,0.0,0.0,85,0.00,,,0.00,WUHU21623XXSP,2013-01-19 11:36:00,
2013-01-19 06:42:00,27.1,23.2,0.00,North,0,0.0,0.0,85,0.00,,,0.00,WUHU21623XXSP,2013-01-19 11:42:00,
2013-01-19 06:49:00,27.1,23.2,0.00,North,0,0.0,0.0,85,0.00,,,0.00,WUHU21623XXSP,2013-01-19 11:49:00,
2013-01-19 06:53:00,27.1,23.2,0.00,North,0,0.0,0.0,85,0.00,,,0.00,WUHU21623XXSP,2013-01-19 11:53:00,
2013-01-19 06:57:00,27.1,23.2,0.00,North,0,0.0,0.0,85,0.00,,,0.00,WUHU21623XXSP,2013-01-19 11:57:00,
2013-01-19 07:04:00,27.1,23.2,0.00,North,0,0.0,0.0,85,0.00,,,0.00,WUHU21623XXSP,2013-01-19 12:04:00,
2013-01-19 07:08:00,27.1,23.2,0.00,North,0,0.0,0.0,85,0.00,,,0.00,WUHU21623XXSP,2013-01-19 12:08:00,
2013-01-19 07:14:00,27.1,23.2,0.00,North,0,0.0,0.0,85,0.00,,,0.00,WUHU21623XXSP,2013-01-19 12:14:00,
2013-01-19 07:19:00,27.1,23.2,0.00,North,0,0.0,0.0,85,0.00,,,0.00,WUHU21623XXSP,2013-01-19 12:19:00,
2013-01-19 07:25:00,27.1,23.2,0.00,North,0,0.0,0.0,85,0.00,,,0.00,WUHU21623XXSP,2013-01-19 12:25:00,
2013-01-19 07:29:00,27.1,23.2,0.00,North,0,0.0,0.0,85,0.00,,,0.00,WUHU21623XXSP,2013-01-19 12:29:00,
2013-01-19 07:34:00,27.1,23.2,0.00,North,0,0.0,0.0,85,0.00,,,0.00,WUHU21623XXSP,2013-01-19 12:34:00,
2013-01-19 07:40:00,27.1,23.2,0.00,North,0,0.0,0.0,85,0.00,,,0.00,WUHU21623XXSP,2013-01-19 12:40:00,
2013-01-19 07:44:00,27.1,23.2,0.00,North,0,0.0,0.0,85,0.00,,,0.00,WUHU21623XXSP,2013-01-19 12:44:00,
2013-01-19 07:51:00,27.1,23.2,0.00,North,0,0.0,0.0,85,0.00,,,0.00,WUHU21623XXSP,2013-01-19 12:51:00,
2013-01-19 07:55:00,27.1,23.2,0.00,North,0,0.0,0.0,85,0.00,,,0.00,WUHU21623XXSP,2013-01-19 12:55:00,
2013-01-19 08:01:00,27.3,23.4,0.00,North,0,0.0,0.0,85,0.00,,,0.00,WUHU21623XXSP,2013-01-19 13:01:00,
2013-01-19 08:06:00,27.3,23.4,0.00,North,0,0.0,0.0,85,0.00,,,0.00,WUHU21623XXSP,2013-01-19 13:06:00,
2013-01-19 08:10:00,27.3,23.4,0.00,North,0,0.0,0.0,85,0.00,,,0.00,WUHU21623XXSP,2013-01-19 13:10:00,
2013-01-19 08:17:00,27.5,23.8,0.00,North,0,0.0,0.0,86,0.00,,,0.00,WUHU21623XXSP,2013-01-19 13:17:00,
2013-01-19 08:21:00,27.7,24.0,0.00,North,0,0.0,0.0,86,0.00,,,0.00,WUHU21623XXSP,2013-01-19 13:21:00,
2013-01-19 08:25:00,28.0,24.4,0.00,North,0,0.0,0.0,86,0.00,,,0.00,WUHU21623XXSP,2013-01-19 13:25:00,
2013-01-19 08:32:00,28.2,24.5,0.00,North,0,0.0,0.0,86,0.00,,,0.00,WUHU21623XXSP,2013-01-19 13:32:00,
2013-01-19 08:36:00,28.6,24.7,0.00,North,0,0.0,0.0,86,0.00,,,0.00,WUHU21623XXSP,2013-01-19 13:36:00,
2013-01-19 08:42:00,28.8,25.1,0.00,North,0,0.0,0.0,86,0.00,,,0.00,WUHU21623XXSP,2013-01-19 13:42:00,
2013-01-19 08:47:00,29.1,25.4,0.00,North,0,0.0,0.0,86,0.00,,,0.00,WUHU21623XXSP,2013-01-19 13:47:00,
2013-01-19 08:51:00,29.5,25.8,0.00,North,0,0.0,0.0,86,0.00,,,0.00,WUHU21623XXSP,2013-01-19 13:51:00,
2013-01-19 08:57:00,30.0,26.3,0.00,North,0,0.0,0.0,86,0.00,,,0.00,WUHU21623XXSP,2013-01-19 13:57:00,
2013-01-19 09:01:00,30.0,26.3,0.00,North,0,0.0,0.0,86,0.00,,,0.00,WUHU21623XXSP,2013-01-19 14:01:00,
2013-01-19 09:08:00,30.7,26.9,0.00,North,0,0.0,0.0,86,0.00,,,0.00,WUHU21623XXSP,2013-01-19 14:08:00,
2013-01-19 09:12:00,30.9,27.2,0.00,North,0,0.0,0.0,86,0.00,,,0.00,WUHU21623XXSP,2013-01-19 14:12:00,
2013-01-19 09:17:00,31.3,27.3,0.00,North,0,0.0,0.0,85,0.00,,,0.00,WUHU21623XXSP,2013-01-19 14:17:00,
2013-01-19 09:23:00,31.8,27.9,0.00,North,0,0.0,0.0,85,0.00,,,0.00,WUHU21623XXSP,2013-01-19 14:23:00,
2013-01-19 09:27:00,32.2,28.2,0.00,North,0,0.0,0.0,85,0.00,,,0.00,WUHU21623XXSP,2013-01-19 14:27:00,
2013-01-19 09:34:00,32.7,28.4,0.00,North,0,0.0,0.0,84,0.00,,,0.00,WUHU21623XXSP,2013-01-19 14:34:00,
2013-01-19 09:38:00,33.1,28.7,0.00,North,0,0.0,0.0,84,0.00,,,0.00,WUHU21623XXSP,2013-01-19 14:38:00,
2013-01-19 09:44:00,33.8,28.7,0.00,North,0,0.0,0.0,84,0.00,,,0.00,WUHU21623XXSP,2013-01-19 14:44:00,
2013-01-19 09:49:00,34.3,29.4,0.00,North,0,0.0,0.0,83,0.00,,,0.00,WUHU21623XXSP,2013-01-19 14:49:00,
2013-01-19 09:53:00,34.5,29.6,0.00,North,0,0.0,0.0,83,0.00,,,0.00,WUHU21623XXSP,2013-01-19 14:53:00,
2013-01-19 10:01:00,34.7,29.7,0.00,North,0,0.0,0.0,82,0.00,,,0.00,WUHU21623XXSP,2013-01-19 15:01:00,
2013-01-19 10:06:00,35.2,30.2,0.00,North,0,0.0,0.0,82,0.00,,,0.00,WUHU21623XXSP,2013-01-19 15:06:00,
2013-01-19 10:10:00,35.4,30.2,0.00,North,0,0.0,0.0,82,0.00,,,0.00,WUHU21623XXSP,2013-01-19 15:10:00,
2013-01-19 10:17:00,35.8,30.5,0.00,North,0,0.0,0.0,81,0.00,,,0.00,WUHU21623XXSP,2013-01-19 15:17:00,
2013-01-19 10:21:00,36.1,30.7,0.00,North,0,0.0,0.0,80,0.00,,,0.00,WUHU21623XXSP,2013-01-19 15:21:00,
2013-01-19 10:25:00,36.3,30.6,0.00,North,0,0.0,0.0,80,0.00,,,0.00,WUHU21623XXSP,2013-01-19 15:25:00,
2013-01-19 10:32:00,36.7,31.1,0.00,North,0,0.0,0.0,80,0.00,,,0.00,WUHU21623XXSP,2013-01-19 15:32:00,
2013-01-19 10:36:00,37.2,31.6,0.00,North,0,0.0,0.0,80,0.00,,,0.00,WUHU21623XXSP,2013-01-19 15:36:00,
2013-01-19 10:47:00,38.3,32.4,0.00,North,0,0.0,0.0,79,0.00,,,0.00,WUHU21623XXSP,2013-01-19 15:47:00,
2013-01-19 10:52:00,38.8,32.2,0.00,North,0,0.0,0.0,77,0.00,,,0.00,WUHU21623XXSP,2013-01-19 15:52:00,
2013-01-19 10:57:00,39.0,32.4,0.00,North,0,0.0,0.0,77,0.00,,,0.00,WUHU21623XXSP,2013-01-19 15:57:00,
2013-01-19 11:02:00,39.0,32.4,0.00,North,0,0.0,0.0,77,0.00,,,0.00,WUHU21623XXSP,2013-01-19 16:02:00,
2013-01-19 11:07:00,39.4,32.4,0.00,North,0,0.0,0.0,76,0.00,,,0.00,WUHU21623XXSP,2013-01-19 16:07:00,
2013-01-19 11:12:00,39.9,32.9,0.00,North,0,0.0,0.0,76,0.00,,,0.00,WUHU21623XXSP,2013-01-19 16:12:00,
2013-01-19 11:17:00,40.1,33.1,0.00,North,0,0.0,0.0,76,0.00,,,0.00,WUHU21623XXSP,2013-01-19 16:17:00,
2013-01-19 11:22:00,40.8,33.4,0.00,North,0,0.0,0.0,75,0.00,,,0.00,WUHU21623XXSP,2013-01-19 16:22:00,
2013-01-19 11:27:00,40.8,33.4,0.00,North,0,0.0,0.0,75,0.00,,,0.00,WUHU21623XXSP,2013-01-19 16:27:00,
2013-01-19 11:32:00,41.2,33.5,0.00,North,0,0.0,0.0,74,0.00,,,0.00,WUHU21623XXSP,2013-01-19 16:32:00,
2013-01-19 11:37:00,41.5,33.8,0.00,North,0,0.0,0.0,74,0.00,,,0.00,WUHU21623XXSP,2013-01-19 16:37:00,
2013-01-19 11:42:00,41.7,34.0,0.00,North,0,0.0,0.0,74,0.00,,,0.00,WUHU21623XXSP,2013-01-19 16:42:00,
2013-01-19 11:47:00,42.1,34.4,0.00,North,0,0.0,0.0,74,0.00,,,0.00,WUHU21623XXSP,2013-01-19 16:47:00,
2013-01-19 11:53:00,42.6,34.6,0.00,North,0,0.0,0.0,73,0.00,,,0.00,WUHU21623XXSP,2013-01-19 16:53:00,
2013-01-19 11:58:00,43.2,35.1,0.00,North,0,0.0,0.0,73,0.00,,,0.00,WUHU21623XXSP,2013-01-19 16:58:00,
2013-01-19 12:03:00,43.3,35.3,0.00,North,0,0.0,0.0,73,0.00,,,0.00,WUHU21623XXSP,2013-01-19 17:03:00,
2013-01-19 12:08:00,43.9,35.8,0.00,North,0,0.0,0.0,73,0.00,,,0.00,WUHU21623XXSP,2013-01-19 17:08:00,
2013-01-19 12:13:00,44.2,36.1,0.00,North,0,0.0,0.0,73,0.00,,,0.00,WUHU21623XXSP,2013-01-19 17:13:00,
2013-01-19 12:18:00,44.4,35.9,0.00,North,0,0.0,0.0,72,0.00,,,0.00,WUHU21623XXSP,2013-01-19 17:18:00,
2013-01-19 12:23:00,45.0,36.5,0.00,North,0,0.0,0.0,72,0.00,,,0.00,WUHU21623XXSP,2013-01-19 17:23:00,
2013-01-19 12:28:00,45.3,36.6,0.00,North,0,0.0,0.0,71,0.00,,,0.00,WUHU21623XXSP,2013-01-19 17:28:00,
2013-01-19 12:33:00,45.7,36.8,0.00,North,0,0.0,0.0,71,0.00,,,0.00,WUHU21623XXSP,2013-01-19 17:33:00,
2013-01-19 12:38:00,46.0,36.9,0.00,North,0,0.0,0.0,70,0.00,,,0.00,WUHU21623XXSP,2013-01-19 17:38:00,
2013-01-19 12:43:00,46.2,37.0,0.00,North,0,0.0,0.0,70,0.00,,,0.00,WUHU21623XXSP,2013-01-19 17:43:00,
2013-01-19 12:48:00,46.6,37.0,0.00,North,0,0.0,0.0,69,0.00,,,0.00,WUHU21623XXSP,2013-01-19 17:48:00,
2013-01-19 12:53:00,46.6,37.0,0.00,North,0,0.0,0.0,69,0.00,,,0.00,WUHU21623XXSP,2013-01-19 17:53:00,
2013-01-19 12:58:00,46.8,37.1,0.00,North,0,0.0,0.0,69,0.00,,,0.00,WUHU21623XXSP,2013-01-19 17:58:00,
2013-01-19 13:03:00,46.8,37.1,0.00,North,0,0.0,0.0,69,0.00,,,0.00,WUHU21623XXSP,2013-01-19 18:03:00,
2013-01-19 13:09:00,46.9,36.5,0.00,North,0,0.0,0.0,67,0.00,,,0.00,WUHU21623XXSP,2013-01-19 18:09:00,
2013-01-19 13:14:00,47.1,36.7,0.00,North,0,0.0,0.0,67,0.00,,,0.00,WUHU21623XXSP,2013-01-19 18:14:00,
2013-01-19 13:20:00,47.3,36.9,0.00,North,0,0.0,0.0,67,0.00,,,0.00,WUHU21623XXSP,2013-01-19 18:20:00,
2013-01-19 13:25:00,47.7,37.2,0.00,North,0,0.0,0.0,67,0.00,,,0.00,WUHU21623XXSP,2013-01-19 18:25:00,
2013-01-19 13:30:00,48.0,37.5,0.00,North,0,0.0,0.0,67,0.00,,,0.00,WUHU21623XXSP,2013-01-19 18:30:00,
2013-01-19 13:35:00,48.4,37.9,0.00,North,0,0.0,0.0,67,0.00,,,0.00,WUHU21623XXSP,2013-01-19 18:35:00,
2013-01-19 13:40:00,48.6,38.0,0.00,North,0,0.0,0.0,67,0.00,,,0.00,WUHU21623XXSP,2013-01-19 18:40:00,
2013-01-19 13:45:00,48.7,38.2,0.00,North,0,0.0,0.0,67,0.00,,,0.00,WUHU21623XXSP,2013-01-19 18:45:00,
2013-01-19 13:50:00,49.1,37.8,0.00,North,0,0.0,0.0,65,0.00,,,0.00,WUHU21623XXSP,2013-01-19 18:50:00,
2013-01-19 13:55:00,49.3,38.0,0.00,North,0,0.0,0.0,65,0.00,,,0.00,WUHU21623XXSP,2013-01-19 18:55:00,
2013-01-19 14:01:00,49.6,37.9,0.00,North,0,0.0,0.0,64,0.00,,,0.00,WUHU21623XXSP,2013-01-19 19:01:00,
2013-01-19 14:07:00,49.8,38.5,0.00,North,0,0.0,0.0,65,0.00,,,0.00,WUHU21623XXSP,2013-01-19 19:07:00,
2013-01-19 14:12:00,49.8,38.5,0.00,North,0,0.0,0.0,65,0.00,,,0.00,WUHU21623XXSP,2013-01-19 19:12:00,
2013-01-19 14:17:00,49.8,38.5,0.00,North,0,0.0,0.0,65,0.00,,,0.00,WUHU21623XXSP,2013-01-19 19:17:00,
2013-01-19 14:22:00,50.2,38.4,0.00,North,0,0.0,0.0,64,0.00,,,0.00,WUHU21623XXSP,2013-01-19 19:22:00,
2013-01-19 14:27:00,50.4,38.6,0.00,North,0,0.0,0.0,64,0.00,,,0.00,WUHU21623XXSP,2013-01-19 19:27:00,
2013-01-19 14:33:00,50.5,38.4,0.00,North,0,0.0,0.0,63,0.00,,,0.00,WUHU21623XXSP,2013-01-19 19:33:00,
2013-01-19 14:38:00,50.5,38.0,0.00,North,0,0.0,0.0,62,0.00,,,0.00,WUHU21623XXSP,2013-01-19 19:38:00,
2013-01-19 14:43:00,50.5,38.0,0.00,North,0,0.0,0.0,62,0.00,,,0.00,WUHU21623XXSP,2013-01-19 19:43:00,
2013-01-19 14:48:00,50.7,37.7,0.00,North,0,0.0,0.0,61,0.00,,,0.00,WUHU21623XXSP,2013-01-19 19:48:00,
2013-01-19 14:53:00,50.7,37.7,0.00,North,0,0.0,0.0,61,0.00,,,0.00,WUHU21623XXSP,2013-01-19 19:53:00,
2013-01-19 14:58:00,50.7,37.7,0.00,North,0,0.0,0.0,61,0.00,,,0.00,WUHU21623XXSP,2013-01-19 19:58:00,
2013-01-19 15:03:00,50.5,37.6,0.00,North,0,0.0,0.0,61,0.00,,,0.00,WUHU21623XXSP,2013-01-19 20:03:00,
2013-01-19 15:08:00,50.4,37.0,0.00,North,0,0.0,0.0,60,0.00,,,0.00,WUHU21623XXSP,2013-01-19 20:08:00,
2013-01-19 15:13:00,50.4,37.4,0.00,North,0,0.0,0.0,61,0.00,,,0.00,WUHU21623XXSP,2013-01-19 20:13:00,
2013-01-19 15:19:00,50.4,37.0,0.00,North,0,0.0,0.0,60,0.00,,,0.00,WUHU21623XXSP,2013-01-19 20:19:00,
2013-01-19 15:24:00,50.4,37.4,0.00,North,0,0.0,0.0,61,0.00,,,0.00,WUHU21623XXSP,2013-01-19 20:24:00,
2013-01-19 15:29:00,50.4,37.4,0.00,North,0,0.0,0.0,60,0.00,,,0.00,WUHU21623XXSP,2013-01-19 20:29:00,
2013-01-19 15:34:00,50.4,37.0,0.00,North,0,0.0,0.0,60,0.00,,,0.00,WUHU21623XXSP,2013-01-19 20:34:00,
2013-01-19 15:39:00,50.4,37.4,0.00,North,0,0.0,0.0,61,0.00,,,0.00,WUHU21623XXSP,2013-01-19 20:39:00,
2013-01-19 15:45:00,50.4,37.4,0.00,North,0,0.0,0.0,61,0.00,,,0.00,WUHU21623XXSP,2013-01-19 20:45:00,
2013-01-19 15:50:00,50.5,37.2,0.00,North,0,0.0,0.0,60,0.00,,,0.00,WUHU21623XXSP,2013-01-19 20:50:00,
2013-01-19 15:55:00,50.5,37.2,0.00,North,0,0.0,0.0,59,0.00,,,0.00,WUHU21623XXSP,2013-01-19 20:55:00,
2013-01-19 16:00:00,50.5,36.7,0.00,North,0,0.0,0.0,59,0.00,,,0.00,WUHU21623XXSP,2013-01-19 21:00:00,
2013-01-19 16:05:00,50.7,36.9,0.00,North,0,0.0,0.0,59,0.00,,,0.00,WUHU21623XXSP,2013-01-19 21:05:00,
2013-01-19 16:10:00,51.1,37.2,0.00,North,0,0.0,0.0,59,0.00,,,0.00,WUHU21623XXSP,2013-01-19 21:10:00,
2013-01-19 16:15:00,50.9,36.6,0.00,North,0,0.0,0.0,58,0.00,,,0.00,WUHU21623XXSP,2013-01-19 21:15:00,
2013-01-19 16:21:00,50.5,36.9,0.00,North,0,0.0,0.0,59,0.00,,,0.00,WUHU21623XXSP,2013-01-19 21:21:00,
2013-01-19 16:26:00,50.2,36.4,0.00,North,0,0.0,0.0,59,0.00,,,0.00,WUHU21623XXSP,2013-01-19 21:26:00,
2013-01-19 16:31:00,50.0,36.2,0.00,North,0,0.0,0.0,59,0.00,,,0.00,WUHU21623XXSP,2013-01-19 21:31:00,
2013-01-19 16:37:00,49.8,36.0,0.00,North,0,0.0,0.0,59,0.00,,,0.00,WUHU21623XXSP,2013-01-19 21:37:00,
2013-01-19 16:42:00,49.3,35.6,0.00,North,0,0.0,0.0,59,0.00,,,0.00,WUHU21623XXSP,2013-01-19 21:42:00,
2013-01-19 16:48:00,48.7,35.5,0.00,North,0,0.0,0.0,60,0.00,,,0.00,WUHU21623XXSP,2013-01-19 21:48:00,
2013-01-19 16:53:00,48.2,35.2,0.00,North,0,0.0,0.0,60,0.00,,,0.00,WUHU21623XXSP,2013-01-19 21:53:00,
2013-01-19 16:58:00,48.0,35.3,0.00,North,0,0.0,0.0,61,0.00,,,0.00,WUHU21623XXSP,2013-01-19 21:58:00,
2013-01-19 17:03:00,47.5,35.1,0.00,North,0,0.0,0.0,62,0.00,,,0.00,WUHU21623XXSP,2013-01-19 22:03:00,
2013-01-19 17:08:00,47.1,34.8,0.00,North,0,0.0,0.0,62,0.00,,,0.00,WUHU21623XXSP,2013-01-19 22:08:00,
2013-01-19 17:13:00,46.9,34.6,0.00,North,0,0.0,0.0,62,0.00,,,0.00,WUHU21623XXSP,2013-01-19 22:13:00,
2013-01-19 17:19:00,46.6,34.4,0.00,North,0,0.0,0.0,62,0.00,,,0.00,WUHU21623XXSP,2013-01-19 22:19:00,
2013-01-19 17:24:00,46.2,34.2,0.00,North,0,0.0,0.0,62,0.00,,,0.00,WUHU21623XXSP,2013-01-19 22:24:00,
2013-01-19 17:29:00,46.0,34.1,0.00,North,0,0.0,0.0,63,0.00,,,0.00,WUHU21623XXSP,2013-01-19 22:29:00,
2013-01-19 17:34:00,45.5,34.0,0.00,North,0,0.0,0.0,64,0.00,,,0.00,WUHU21623XXSP,2013-01-19 22:34:00,
2013-01-19 17:39:00,45.3,33.8,0.00,North,0,0.0,0.0,64,0.00,,,0.00,WUHU21623XXSP,2013-01-19 22:39:00,
2013-01-19 17:44:00,45.0,33.5,0.00,North,0,0.0,0.0,64,0.00,,,0.00,WUHU21623XXSP,2013-01-19 22:44:00,
2013-01-19 17:49:00,44.6,33.3,0.00,North,0,0.0,0.0,65,0.00,,,0.00,WUHU21623XXSP,2013-01-19 22:49:00,
2013-01-19 17:54:00,44.4,33.4,0.00,North,0,0.0,0.0,65,0.00,,,0.00,WUHU21623XXSP,2013-01-19 22:54:00,
2013-01-19 17:59:00,44.1,33.4,0.00,North,0,0.0,0.0,66,0.00,,,0.00,WUHU21623XXSP,2013-01-19 22:59:00,
2013-01-19 18:04:00,43.9,33.2,0.00,North,0,0.0,0.0,66,0.00,,,0.00,WUHU21623XXSP,2013-01-19 23:04:00,
2013-01-19 18:10:00,43.5,33.1,0.00,North,0,0.0,0.0,66,0.00,,,0.00,WUHU21623XXSP,2013-01-19 23:10:00,
2013-01-19 18:15:00,43.5,32.9,0.00,North,0,0.0,0.0,67,0.00,,,0.00,WUHU21623XXSP,2013-01-19 23:15:00,
2013-01-19 18:20:00,43.3,33.1,0.00,North,0,0.0,0.0,67,0.00,,,0.00,WUHU21623XXSP,2013-01-19 23:20:00,
2013-01-19 18:25:00,43.2,32.9,0.00,North,0,0.0,0.0,67,0.00,,,0.00,WUHU21623XXSP,2013-01-19 23:25:00,
2013-01-19 18:30:00,43.0,32.8,0.00,North,0,0.0,0.0,67,0.00,,,0.00,WUHU21623XXSP,2013-01-19 23:30:00,
2013-01-19 18:35:00,42.6,32.8,0.00,North,0,0.0,0.0,68,0.00,,,0.00,WUHU21623XXSP,2013-01-19 23:35:00,
2013-01-19 18:40:00,42.3,32.6,0.00,North,0,0.0,0.0,68,0.00,,,0.00,WUHU21623XXSP,2013-01-19 23:40:00,
2013-01-19 18:45:00,42.1,32.3,0.00,North,0,0.0,0.0,68,0.00,,,0.00,WUHU21623XXSP,2013-01-19 23:45:00,
2013-01-19 18:50:00,41.5,31.8,0.00,North,0,0.0,0.0,68,0.00,,,0.00,WUHU21623XXSP,2013-01-19 23:50:00,
2013-01-19 18:56:00,41.4,32.0,0.00,North,0,0.0,0.0,69,0.00,,,0.00,WUHU21623XXSP,2013-01-19 23:56:00,
2013-01-19 19:01:00,41.2,31.8,0.00,North,0,0.0,0.0,69,0.00,,,0.00,WUHU21623XXSP,2013-01-20 00:01:00,
2013-01-19 19:06:00,40.8,31.4,0.00,North,0,0.0,0.0,69,0.00,,,0.00,WUHU21623XXSP,2013-01-20 00:06:00,
2013-01-19 19:12:00,40.8,31.4,0.00,North,0,0.0,0.0,70,0.00,,,0.00,WUHU21623XXSP,2013-01-20 00:12:00,
2013-01-19 19:17:00,40.6,31.6,0.00,North,0,0.0,0.0,70,0.00,,,0.00,WUHU21623XXSP,2013-01-20 00:17:00,
2013-01-19 19:22:00,40.3,31.5,0.00,North,0,0.0,0.0,70,0.00,,,0.00,WUHU21623XXSP,2013-01-20 00:22:00,
2013-01-19 19:27:00,39.9,31.1,0.00,North,0,0.0,0.0,70,0.00,,,0.00,WUHU21623XXSP,2013-01-20 00:27:00,
2013-01-19 19:32:00,39.7,31.1,0.00,North,0,0.0,0.0,71,0.00,,,0.00,WUHU21623XXSP,2013-01-20 00:32:00,
2013-01-19 19:37:00,39.6,30.9,0.00,North,0,0.0,0.0,71,0.00,,,0.00,WUHU21623XXSP,2013-01-20 00:37:00,
2013-01-19 19:43:00,39.4,30.7,0.00,North,0,0.0,0.0,71,0.00,,,0.00,WUHU21623XXSP,2013-01-20 00:43:00,
2013-01-19 19:48:00,39.0,30.7,0.00,North,0,0.0,0.0,72,0.00,,,0.00,WUHU21623XXSP,2013-01-20 00:48:00,
2013-01-19 19:53:00,39.0,30.7,0.00,North,0,0.0,0.0,72,0.00,,,0.00,WUHU21623XXSP,2013-01-20 00:53:00,
2013-01-19 19:58:00,38.8,30.5,0.00,North,0,0.0,0.0,72,0.00,,,0.00,WUHU21623XXSP,2013-01-20 00:58:00,
2013-01-19 20:03:00,39.0,30.7,0.00,North,0,0.0,0.0,72,0.00,,,0.00,WUHU21623XXSP,2013-01-20 01:03:00,
2013-01-19 20:08:00,39.0,30.7,0.00,North,0,0.0,0.0,72,0.00,,,0.00,WUHU21623XXSP,2013-01-20 01:08:00,
2013-01-19 20:13:00,39.4,30.7,0.00,North,0,0.0,0.0,72,0.00,,,0.00,WUHU21623XXSP,2013-01-20 01:13:00,
2013-01-19 20:19:00,39.6,31.2,0.00,North,0,0.0,0.0,72,0.00,,,0.00,WUHU21623XXSP,2013-01-20 01:19:00,
2013-01-19 20:24:00,39.9,31.6,0.00,North,0,0.0,0.0,72,0.00,,,0.00,WUHU21623XXSP,2013-01-20 01:24:00,
2013-01-19 20:29:00,39.9,31.2,0.00,North,0,0.0,0.0,71,0.00,,,0.00,WUHU21623XXSP,2013-01-20 01:29:00,
2013-01-19 20:34:00,40.1,31.4,0.00,North,0,0.0,0.0,71,0.00,,,0.00,WUHU21623XXSP,2013-01-20 01:34:00,
2013-01-19 20:39:00,40.3,31.6,0.00,North,0,0.0,0.0,71,0.00,,,0.00,WUHU21623XXSP,2013-01-20 01:39:00,
2013-01-19 20:44:00,40.5,31.8,0.00,North,0,0.0,0.0,71,0.00,,,0.00,WUHU21623XXSP,2013-01-20 01:44:00,
2013-01-19 20:49:00,40.5,31.8,0.00,North,0,0.0,0.0,71,0.00,,,0.00,WUHU21623XXSP,2013-01-20 01:49:00,
2013-01-19 20:54:00,40.6,31.6,0.00,North,0,0.0,0.0,70,0.00,,,0.00,WUHU21623XXSP,2013-01-20 01:54:00,
2013-01-19 21:00:00,40.5,31.5,0.00,North,0,0.0,0.0,70,0.00,,,0.00,WUHU21623XXSP,2013-01-20 02:00:00,
2013-01-19 21:05:00,40.5,31.5,0.00,North,0,0.0,0.0,70,0.00,,,0.00,WUHU21623XXSP,2013-01-20 02:05:00,
2013-01-19 21:10:00,40.5,31.5,0.00,North,0,0.0,0.0,70,0.00,,,0.00,WUHU21623XXSP,2013-01-20 02:10:00,
2013-01-19 21:15:00,40.5,31.5,0.00,North,0,0.0,0.0,70,0.00,,,0.00,WUHU21623XXSP,2013-01-20 02:15:00,
2013-01-19 21:20:00,40.3,31.3,0.00,North,0,0.0,0.0,70,0.00,,,0.00,WUHU21623XXSP,2013-01-20 02:20:00,
2013-01-19 21:25:00,40.3,31.3,0.00,North,0,0.0,0.0,70,0.00,,,0.00,WUHU21623XXSP,2013-01-20 02:25:00,
2013-01-19 21:30:00,40.1,31.1,0.00,North,0,0.0,0.0,70,0.00,,,0.00,WUHU21623XXSP,2013-01-20 02:30:00,
2013-01-19 21:35:00,40.1,31.1,0.00,North,0,0.0,0.0,70,0.00,,,0.00,WUHU21623XXSP,2013-01-20 02:35:00,
2013-01-19 21:41:00,39.9,30.9,0.00,North,0,0.0,0.0,70,0.00,,,0.00,WUHU21623XXSP,2013-01-20 02:41:00,
2013-01-19 21:46:00,39.9,30.9,0.00,North,0,0.0,0.0,70,0.00,,,0.00,WUHU21623XXSP,2013-01-20 02:46:00,
2013-01-19 21:51:00,39.7,30.7,0.00,North,0,0.0,0.0,70,0.00,,,0.00,WUHU21623XXSP,2013-01-20 02:51:00,
2013-01-19 21:57:00,39.7,30.7,0.00,North,0,0.0,0.0,70,0.00,,,0.00,WUHU21623XXSP,2013-01-20 02:57:00,
2013-01-19 22:01:00,39.4,30.6,0.00,North,0,0.0,0.0,71,0.00,,,0.00,WUHU21623XXSP,2013-01-20 03:01:00,
2013-01-19 22:06:00,39.4,30.7,0.00,North,0,0.0,0.0,71,0.00,,,0.00,WUHU21623XXSP,2013-01-20 03:06:00,
2013-01-19 22:12:00,39.0,30.4,0.00,North,0,0.0,0.0,71,0.00,,,0.00,WUHU21623XXSP,2013-01-20 03:12:00,
2013-01-19 22:17:00,38.8,30.2,0.00,North,0,0.0,0.0,71,0.00,,,0.00,WUHU21623XXSP,2013-01-20 03:17:00,
2013-01-19 22:22:00,38.8,30.2,0.00,North,0,0.0,0.0,71,0.00,,,0.00,WUHU21623XXSP,2013-01-20 03:22:00,
2013-01-19 22:27:00,38.5,29.9,0.00,North,0,0.0,0.0,71,0.00,,,0.00,WUHU21623XXSP,2013-01-20 03:27:00,
2013-01-19 22:32:00,38.5,30.2,0.00,North,0,0.0,0.0,72,0.00,,,0.00,WUHU21623XXSP,2013-01-20 03:32:00,
2013-01-19 22:38:00,38.1,29.9,0.00,North,0,0.0,0.0,72,0.00,,,0.00,WUHU21623XXSP,2013-01-20 03:38:00,
2013-01-19 22:43:00,38.1,29.9,0.00,North,0,0.0,0.0,72,0.00,,,0.00,WUHU21623XXSP,2013-01-20 03:43:00,
2013-01-19 22:48:00,38.1,29.9,0.00,North,0,0.0,0.0,72,0.00,,,0.00,WUHU21623XXSP,2013-01-20 03:48:00,
2013-01-19 22:53:00,37.9,29.7,0.00,North,0,0.0,0.0,72,0.00,,,0.00,WUHU21623XXSP,2013-01-20 03:53:00,
2013-01-19 22:58:00,37.9,29.7,0.00,North,0,0.0,0.0,72,0.00,,,0.00,WUHU21623XXSP,2013-01-20 03:58:00,
2013-01-19 23:03:00,37.6,29.7,0.00,North,0,0.0,0.0,73,0.00,,,0.00,WUHU21623XXSP,2013-01-20 04:03:00,
2013-01-19 23:08:00,37.4,29.6,0.00,North,0,0.0,0.0,73,0.00,,,0.00,WUHU21623XXSP,2013-01-20 04:08:00,
2013-01-19 23:13:00,37.2,29.4,0.00,North,0,0.0,0.0,73,0.00,,,0.00,WUHU21623XXSP,2013-01-20 04:13:00,
2013-01-19 23:18:00,37.0,29.2,0.00,North,0,0.0,0.0,73,0.00,,,0.00,WUHU21623XXSP,2013-01-20 04:18:00,
2013-01-19 23:23:00,37.0,29.5,0.00,North,0,0.0,0.0,74,0.00,,,0.00,WUHU21623XXSP,2013-01-20 04:23:00,
2013-01-19 23:29:00,37.0,29.5,0.00,North,0,0.0,0.0,74,0.00,,,0.00,WUHU21623XXSP,2013-01-20 04:29:00,
2013-01-19 23:33:00,37.0,29.5,0.00,North,0,0.0,0.0,74,0.00,,,0.00,WUHU21623XXSP,2013-01-20 04:33:00,
2013-01-19 23:39:00,37.0,29.5,0.00,North,0,0.0,0.0,74,0.00,,,0.00,WUHU21623XXSP,2013-01-20 04:39:00,
2013-01-19 23:44:00,37.0,29.5,0.00,North,0,0.0,0.0,74,0.00,,,0.00,WUHU21623XXSP,2013-01-20 04:44:00,
2013-01-19 23:49:00,36.9,29.3,0.00,North,0,0.0,0.0,74,0.00,,,0.00,WUHU21623XXSP,2013-01-20 04:49:00,
2013-01-19 23:54:00,36.7,29.2,0.00,North,0,0.0,0.0,74,0.00,,,0.00,WUHU21623XXSP,2013-01-20 04:54:00,
2013-01-19 23:59:00,36.5,29.0,0.00,North,0,0.0,0.0,74,0.00,,,0.00,WUHU21623XXSP,2013-01-20 04:59:00,